Latest Coastal Weather Observations for Cape Grim

IDV60701

Issued at 8:11 am EST Thursday 30 July 2015 (issued every 10 minutes, with the page automatically refreshed every 10 minutes)

About coastal observations | Map of coastal stations | Coastal observations for VIC | Marine services | Other Formats
Station Details ID: 091331 Name: CAPE GRIM Lat: -40.68 Lon: 144.69 Height: 86.0 m
Data from the previous 72 hours. | See also: Recent months at Cape Grim
Date/Time
EST
Temp

°C
Wind Pressure Rain
since 9am
mm
Weather Cloud Vis
km
Sea
Height
m
Swell
Dir
 
Speed
knots
Gust
knots
hPa Trend Height
m
Period
s
Dir
30/08:00am 10.5 NNW 25 32 1015.2 - 2.4 - Cloudy - - - - -
30/07:36am 10.5 NNW 25 36 1015.2 - 2.4 - Cloudy - - - - -
30/07:30am 10.6 NNW 27 35 1015.2 - 2.4 - Cloudy - - - - -
30/07:00am 10.5 NNW 28 35 1015.7 - 2.4 - Partly cloudy - - - - -
30/06:30am 10.4 NNW 27 33 1016.0 - 2.4 - Cloudy - - - - -
30/06:00am 10.4 NNW 28 34 1016.4 - 2.4 - Cloudy - - - - -
30/05:30am 10.3 NNW 26 34 1017.1 - 2.4 - Cloudy - - - - -
30/05:00am 10.5 NNW 27 32 1017.5 - 2.4 - Partly cloudy - - - - -
30/04:30am 10.4 NNW 24 30 1018.1 - 2.4 - - - - - - -
30/04:00am 10.4 NNW 25 31 1018.5 - 2.4 - Partly cloudy - - - - -
30/03:30am 10.5 NNW 26 31 1019.0 - 2.4 - Partly cloudy - - - - -
30/03:00am 10.3 NNW 25 32 1019.5 - 2.4 - Cloudy - - - - -
30/02:30am 10.3 NNW 24 30 1019.8 - 2.4 - Partly cloudy - - - - -
30/02:00am 10.5 NNW 27 33 1020.2 - 2.4 - Partly cloudy - - - - -
30/01:30am 10.6 NNW 25 32 1020.4 - 2.4 - Cloudy - - - - -
30/01:00am 10.7 NNW 25 31 1020.7 - 2.4 - Cloudy - - - - -
30/12:30am 10.9 NNW 25 31 1021.3 - 2.4 - Cloudy - - - - -
30/12:00am 10.9 NNW 27 32 1022.0 - 2.4 - Cloudy - - - - -
 
Date/Time
EST
Temp

°C
Wind Pressure Rain
since 9am
mm
Weather Cloud Vis
km
Sea
Height
m
Swell
Dir
 
Speed
knots
Gust
knots
hPa Trend Height
m
Period
s
Dir
29/11:30pm 10.8 NNW 25 30 1022.4 - 2.4 - Partly cloudy - - - - -
29/11:00pm 11.0 NNW 25 31 1022.6 - 2.4 - Partly cloudy - - - - -
29/10:30pm 11.0 NNW 26 31 1023.1 - 2.4 - Partly cloudy - - - - -
29/10:00pm 11.0 NNW 25 30 1023.3 - 2.4 - Cloudy - - - - -
29/09:30pm 11.0 NNW 25 29 1023.6 - 2.4 - Partly cloudy - - - - -
29/09:00pm 11.0 NNW 25 31 1023.7 - 2.4 - Cloudy - - - - -
29/08:30pm 11.1 NNW 21 27 1024.0 - 2.4 - Partly cloudy - - - - -
29/08:00pm 11.1 NW 21 29 1024.2 - 2.4 - Cloudy - - - - -
29/07:30pm 11.1 NW 20 29 1024.3 - 2.4 - Partly cloudy - - - - -
29/07:00pm 11.0 NW 20 28 1024.3 - 2.4 - Partly cloudy - - - - -
29/06:30pm 11.2 NW 19 27 1024.1 - 2.4 - Partly cloudy - - - - -
29/06:00pm 11.3 NW 21 28 1024.2 - 2.4 - Cloudy - - - - -
29/05:37pm 11.1 NW 20 30 1024.2 - 2.4 - Partly cloudy - - - - -
29/05:30pm 11.2 NW 20 26 1024.2 - 2.4 - Partly cloudy - - - - -
29/05:00pm 11.2 NW 17 22 1024.4 - 2.4 - Partly cloudy - - - - -
29/04:30pm 11.3 NW 21 27 1024.7 - 2.4 - Partly cloudy - - - - -
29/04:00pm 11.5 WNW 21 30 1024.8 - 2.4 - Partly cloudy - - - - -
29/03:30pm 11.4 WNW 23 29 1025.1 - 2.4 - Partly cloudy - - - - -
29/03:00pm 11.2 WNW 19 26 1025.5 - 2.4 Recent precip. Cloudy - - - - -
29/02:30pm 10.7 NW 18 26 1025.7 - 2.4 - Partly cloudy - - - - -
29/02:15pm 9.9 WNW 19 27 1026.0 - 2.2 - Partly cloudy - - - - -
29/02:00pm 10.7 NW 21 30 1026.0 - 1.8 - Partly cloudy - - - - -
29/01:57pm 11.1 NW 19 30 1026.1 - 1.8 - Partly cloudy - - - - -
29/01:30pm 11.6 WNW 18 24 1026.5 - 1.8 - Partly cloudy - - - - -
29/01:00pm 11.5 WNW 17 24 1027.2 - 1.8 - Partly cloudy - - - - -
29/12:53pm 11.2 NW 16 21 1027.3 - 1.8 - Partly cloudy - - - - -
29/12:42pm 11.0 NW 15 21 1027.5 - 1.8 - Partly cloudy - - - - -
29/12:30pm 11.1 NW 15 22 1027.6 - 1.8 - Partly cloudy - - - - -
29/12:10pm 10.8 NW 15 19 1028.0 - 1.8 - Partly cloudy - - - - -
29/12:00pm 10.2 NW 17 23 1028.3 - 1.8 Rain Cloudy - - - - -
29/11:42am 10.4 NW 15 20 1028.6 - 0.8 - Partly cloudy - - - - -
29/11:30am 10.8 NW 15 23 1028.7 - 0.4 - Partly cloudy - - - - -
29/11:00am 11.2 NW 14 20 1029.1 - 0.4 - Partly cloudy - - - - -
29/10:30am 11.1 NW 15 21 1029.2 - 0.4 - Partly cloudy - - - - -
29/10:09am 10.3 NW 15 25 1029.4 - 0.4 - Partly cloudy - - - - -
29/10:00am 10.8 NW 16 20 1029.5 - 0.0 - Partly cloudy - - - - -
29/09:30am 11.0 NW 12 15 1029.5 - 0.0 - Partly cloudy - - - - -
29/09:00am 10.5 WNW 11 14 1029.6 - 0.8 - Mostly cloudy - - - - -
29/08:30am 10.1 NW 14 18 1029.8 - 0.8 - Partly cloudy - - - - -
29/08:00am 10.3 NW 13 16 1030.0 - 0.8 - Partly cloudy - - - - -
29/07:30am 9.9 WNW 13 18 1029.7 - 0.8 - Partly cloudy - - - - -
29/07:00am 9.7 NW 11 15 1029.6 - 0.8 - Partly cloudy - - - - -
29/06:30am 9.9 WNW 14 18 1029.6 - 0.8 - Partly cloudy - - - - -
29/06:00am 9.3 WNW 13 18 1029.5 - 0.6 Rain Cloudy - - - - -
29/05:30am 10.1 WNW 13 17 1029.5 - 0.4 - Partly cloudy - - - - -
29/05:00am 10.0 WNW 14 19 1029.5 - 0.4 - Partly cloudy - - - - -
29/04:30am 9.8 WNW 14 17 1029.5 - 0.4 - Partly cloudy - - - - -
29/04:00am 9.9 WNW 13 17 1029.6 - 0.4 - Partly cloudy - - - - -
29/03:30am 9.6 WNW 11 15 1029.7 - 0.4 - - - - - - -
29/03:00am 9.0 WNW 10 14 1029.9 - 0.4 - Cloudy - - - - -
29/02:30am 9.8 WNW 12 16 1030.2 - 0.4 - Partly cloudy - - - - -
29/02:00am 8.6 WNW 6 8 1030.3 - 0.4 - Partly cloudy - - - - -
29/01:30am 8.8 NW 7 9 1030.5 - 0.4 - Partly cloudy - - - - -
29/01:00am 9.4 W 11 16 1030.4 - 0.4 - Partly cloudy - - - - -
29/12:30am 9.2 WNW 12 15 1030.8 - 0.4 - Partly cloudy - - - - -
29/12:00am 9.9 W 13 18 1030.9 - 0.4 - Partly cloudy - - - - -
 
Date/Time
EST
Temp

°C
Wind Pressure Rain
since 9am
mm
Weather Cloud Vis
km
Sea
Height
m
Swell
Dir
 
Speed
knots
Gust
knots
hPa Trend Height
m
Period
s
Dir
28/11:30pm 9.7 W 8 12 1031.0 - 0.4 - Partly cloudy - - - - -
28/11:00pm 9.4 W 11 15 1030.9 - 0.4 - Partly cloudy - - - - -
28/10:48pm 9.4 W 7 9 1030.9 - 0.4 - Partly cloudy - - - - -
28/10:30pm 9.5 W 12 18 1031.2 - 0.4 - Partly cloudy - - - - -
28/10:00pm 10.1 W 12 18 1031.1 - 0.0 - Partly cloudy - - - - -
28/09:30pm 9.4 W 13 19 1031.1 - 0.0 - Partly cloudy - - - - -
28/09:00pm 10.5 W 10 17 1031.1 - 0.0 - Cloudy - - - - -
28/08:30pm 10.0 WSW 12 19 1031.0 - 0.0 - Partly cloudy - - - - -
28/08:00pm 10.4 W 13 19 1030.9 - 0.0 - Partly cloudy - - - - -
28/07:30pm 10.6 W 16 30 1030.7 - 0.0 - Partly cloudy - - - - -
28/07:28pm 10.8 W 15 25 1030.7 - 0.0 - Partly cloudy - - - - -
28/07:00pm 10.7 W 15 22 1030.7 - 0.0 - Partly cloudy - - - - -
28/06:30pm 10.7 W 14 20 1030.7 - 0.0 - Partly cloudy - - - - -
28/06:00pm 10.6 W 14 21 1030.7 - 0.0 - Mostly cloudy - - - - -
28/05:30pm 10.4 W 15 24 1030.5 - 0.0 - Partly cloudy - - - - -
28/05:00pm 10.8 W 14 20 1030.3 - 0.0 - Partly cloudy - - - - -
28/04:30pm 10.7 W 13 22 1030.3 - 0.0 - Partly cloudy - - - - -
28/04:00pm 11.0 W 15 24 1030.0 - 0.0 - Partly cloudy - - - - -
28/03:30pm 11.1 W 15 22 1030.0 - 0.0 - - - - - - -
28/03:00pm 10.7 W 15 27 1029.8 - 0.0 - Cloudy - - - - -
28/02:58pm 11.0 W 16 27 1029.8 - 0.0 - Partly cloudy - - - - -
28/02:30pm 10.8 W 16 24 1029.8 - 0.0 - Partly cloudy - - - - -
28/02:00pm 10.9 W 17 26 1029.8 - 0.0 - Partly cloudy - - - - -
28/01:43pm 11.3 W 17 27 1029.9 - 0.0 - Partly cloudy - - - - -
28/01:30pm 11.2 W 17 25 1030.0 - 0.0 - Partly cloudy - - - - -
28/01:17pm 11.3 W 18 28 1030.0 - 0.0 - Partly cloudy - - - - -
28/01:00pm 11.1 W 16 24 1030.2 - 0.0 - Partly cloudy - - - - -
28/12:30pm 10.6 WSW 17 29 1030.3 - 0.0 - Partly cloudy - - - - -
28/12:00pm 10.7 W 17 28 1030.5 - 0.0 - Partly cloudy - - - - -
28/11:30am 11.4 W 17 29 1030.6 - 0.0 - Partly cloudy - - - - -
28/11:00am 10.9 WSW 15 30 1030.8 - 0.0 - Partly cloudy - - - - -
28/10:37am 11.2 W 17 27 1030.6 - 0.0 - Partly cloudy - - - - -
28/10:30am 11.1 W 18 25 1030.6 - 0.0 - Partly cloudy - - - - -
28/10:00am 10.4 WSW 15 27 1030.5 - 0.0 - Partly cloudy - - - - -
28/09:30am 10.9 W 17 28 1030.3 - 0.0 - Partly cloudy - - - - -
28/09:01am 10.5 W 17 29 1030.1 - 0.0 - Partly cloudy - - - - -
28/09:00am 10.3 W 16 29 1030.1 - 6.4 Recent precip. Cloudy - - - - -
28/08:41am 9.9 W 16 29 1030.2 - 6.4 - Partly cloudy - - - - -
28/08:30am 9.8 W 18 28 1030.0 - 6.2 - Partly cloudy - - - - -
28/08:00am 10.2 SW 16 26 1029.7 - 6.0 - Partly cloudy - - - - -
28/07:30am 10.4 SW 17 31 1029.1 - 5.4 - Partly cloudy - - - - -
28/07:01am 9.8 SW 17 27 1029.0 - 5.4 - Partly cloudy - - - - -
28/07:00am 9.7 SW 18 27 1029.0 - 5.4 - Partly cloudy - - - - -
28/06:30am 9.5 WSW 17 31 1028.6 - 5.2 - Partly cloudy - - - - -
28/06:02am 9.3 SW 22 32 1028.3 - 5.2 - Partly cloudy - - - - -
28/06:00am 9.2 SW 24 32 1028.3 - 5.0 Recent precip. Cloudy - - - - -
28/05:30am 9.4 WSW 16 27 1028.0 - 4.6 - Partly cloudy - - - - -
28/05:20am 9.5 SW 26 37 1028.0 - 4.4 - Partly cloudy - - - - -
28/05:15am 9.6 SW 22 37 1027.8 - 4.2 - Partly cloudy - - - - -
28/05:00am 10.2 WSW 16 31 1027.7 - 4.2 - Partly cloudy - - - - -
28/04:30am 9.6 W 19 32 1027.6 - 4.0 - Partly cloudy - - - - -
28/04:06am 9.8 WSW 21 37 1027.4 - 3.8 - Partly cloudy - - - - -
28/04:04am 10.4 W 19 33 1027.3 - 3.8 - Partly cloudy - - - - -
28/04:00am 10.6 W 17 27 1027.3 - 3.8 - Partly cloudy - - - - -
28/03:30am 10.9 WSW 15 29 1027.5 - 3.6 - Partly cloudy - - - - -
28/03:00am 10.3 WSW 16 28 1027.4 - 3.6 - Mostly cloudy - - - - -
28/02:30am 10.9 WSW 16 27 1027.4 - 3.6 - Partly cloudy - - - - -
28/02:00am 10.6 WSW 16 30 1027.2 - 3.6 - Partly cloudy - - - - -
28/01:30am 10.4 W 17 29 1026.7 - 3.6 - Partly cloudy - - - - -
28/01:00am 10.4 W 18 28 1026.6 - 3.6 - Partly cloudy - - - - -
28/12:55am 10.7 WSW 15 26 1026.5 - 3.4 - Partly cloudy - - - - -
28/12:46am 10.8 WSW 13 22 1026.5 - 3.4 - Partly cloudy - - - - -
28/12:34am 10.8 SW 17 25 1026.5 - 3.4 - Partly cloudy - - - - -
28/12:30am 10.7 SW 18 25 1026.5 - 3.4 - Partly cloudy - - - - -
28/12:02am 10.2 SW 21 31 1026.5 - 3.4 - Partly cloudy - - - - -
28/12:00am 10.4 SW 22 30 1026.5 - 3.4 Recent precip. Cloudy - - - - -
 
Date/Time
EST
Temp

°C
Wind Pressure Rain
since 9am
mm
Weather Cloud Vis
km
Sea
Height
m
Swell
Dir
 
Speed
knots
Gust
knots
hPa Trend Height
m
Period
s
Dir
27/11:30pm 10.9 SW 19 29 1026.4 - 3.0 - Partly cloudy - - - - -
27/11:12pm 10.7 SW 17 27 1026.5 - 3.0 - Partly cloudy - - - - -
27/11:00pm 11.1 SW 20 28 1026.3 - 3.0 - Partly cloudy - - - - -
27/10:30pm 11.1 SW 25 30 1026.3 - 3.0 - Partly cloudy - - - - -
27/10:00pm 11.0 SW 25 30 1026.1 - 3.0 - Partly cloudy - - - - -
27/09:30pm 11.1 SW 25 33 1025.9 - 3.0 - Partly cloudy - - - - -
27/09:00pm 10.9 SW 27 33 1025.7 - 3.0 - Mostly clear - - - - -
27/08:30pm 10.7 SW 29 37 1025.3 - 3.0 - Partly cloudy - - - - -
27/08:01pm 10.7 SW 25 35 1025.1 - 3.0 - Partly cloudy - - - - -
27/08:00pm 10.6 SW 26 35 1025.1 - 3.0 - Partly cloudy - - - - -
27/07:49pm 10.7 SW 25 36 1025.0 - 3.0 - Partly cloudy - - - - -
27/07:30pm 11.1 SW 20 35 1024.7 - 3.0 - Partly cloudy - - - - -
27/07:00pm 10.9 WSW 18 34 1024.3 - 3.0 - Partly cloudy - - - - -
27/06:32pm 10.5 W 19 33 1024.1 - 3.0 - Partly cloudy - - - - -
27/06:30pm 10.5 W 20 33 1024.0 - 3.0 - Partly cloudy - - - - -
27/06:17pm 10.4 W 22 32 1024.0 - 3.0 - Partly cloudy - - - - -
27/06:00pm 10.3 W 21 29 1023.8 - 2.2 Recent precip. Cloudy - - - - -
27/05:30pm 10.7 W 21 32 1023.6 - 1.6 - Partly cloudy - - - - -
27/05:00pm 10.4 W 19 29 1023.6 - 1.6 - Partly cloudy - - - - -
27/04:30pm 10.9 WSW 16 28 1023.3 - 1.4 - Partly cloudy - - - - -
27/04:00pm 10.2 WSW 22 39 1023.2 - 1.4 - Partly cloudy - - - - -
27/03:36pm 10.4 SW 23 33 1023.1 - 1.4 - Partly cloudy - - - - -
27/03:30pm 10.3 SW 25 37 1023.2 - 1.4 - Partly cloudy - - - - -
27/03:00pm 9.9 WSW 19 31 1023.0 - 1.4 Recent precip. Cloudy - - - - -
27/02:45pm 9.2 WSW 23 39 1022.7 - 0.6 - Partly cloudy - - - - -
27/02:44pm 9.5 WSW 22 39 1022.8 - 0.4 - Partly cloudy - - - - -
27/02:30pm 11.1 WSW 17 30 1022.6 - 0.2 - Partly cloudy - - - - -
27/02:00pm 10.4 WSW 18 32 1022.5 - 0.2 - Partly cloudy - - - - -
27/01:44pm 10.5 WSW 17 30 1022.5 - 0.2 - Partly cloudy - - - - -
27/01:41pm 10.8 WSW 16 31 1022.5 - 0.2 - Partly cloudy - - - - -
27/01:30pm 10.1 SW 21 35 1022.5 - 0.2 - Partly cloudy - - - - -
27/01:00pm 10.4 SW 21 36 1022.4 - 0.2 - Partly cloudy - - - - -
27/12:30pm 10.7 WSW 19 34 1022.3 - 0.2 - Partly cloudy - - - - -
27/12:00pm 10.9 WSW 19 34 1022.5 - 0.0 - Partly cloudy - - - - -
27/11:35am 10.4 WSW 19 43 1022.5 - 0.0 - Partly cloudy - - - - -
27/11:30am 10.9 WSW 18 32 1022.7 - 0.0 - Partly cloudy - - - - -
27/11:00am 10.5 WSW 25 39 1022.7 - 0.0 - Partly cloudy - - - - -
27/10:30am 10.8 WSW 19 31 1022.4 - 0.0 - Partly cloudy - - - - -
27/10:00am 10.6 WSW 20 36 1022.3 - 0.0 - Partly cloudy - - - - -
27/09:30am 10.6 WSW 19 35 1021.9 - 0.0 - Partly cloudy - - - - -
27/09:00am 10.1 WSW 18 30 1021.5 - 4.2 - Partly cloudy - - - - -
27/08:30am 9.8 WSW 18 34 1021.2 - 4.2 - Partly cloudy - - - - -

Other Formats:

Comma delimited format used in spreadsheet applications
http://www.bom.gov.au/fwo/IDV60701/IDV60701.95954.axf

JavaScript Object Notation format (JSON) in row-major order
http://www.bom.gov.au/fwo/IDV60701/IDV60701.95954.json